sensor_id;sensor_type;location;lat;lon;timestamp;temperature;humidity
13585;DHT22;6863;48.402;9.994;2023-04-05T00:01:04;-1.50;97.40
13585;DHT22;6863;48.402;9.994;2023-04-05T00:03:32;-1.50;97.50
13585;DHT22;6863;48.402;9.994;2023-04-05T00:05:59;-1.50;97.40
13585;DHT22;6863;48.402;9.994;2023-04-05T00:08:24;-1.60;97.40
13585;DHT22;6863;48.402;9.994;2023-04-05T00:10:51;-1.60;97.50
13585;DHT22;6863;48.402;9.994;2023-04-05T00:13:17;-1.60;97.60
13585;DHT22;6863;48.402;9.994;2023-04-05T00:15:43;-1.60;97.60
13585;DHT22;6863;48.402;9.994;2023-04-05T00:18:09;-1.60;97.60
13585;DHT22;6863;48.402;9.994;2023-04-05T00:20:49;-1.60;97.60
13585;DHT22;6863;48.402;9.994;2023-04-05T00:23:15;-1.70;97.70
13585;DHT22;6863;48.402;9.994;2023-04-05T00:25:43;-1.70;97.70
13585;DHT22;6863;48.402;9.994;2023-04-05T00:28:09;-1.70;97.80
13585;DHT22;6863;48.402;9.994;2023-04-05T00:30:38;-1.70;97.90
13585;DHT22;6863;48.402;9.994;2023-04-05T00:33:05;-1.70;97.90
13585;DHT22;6863;48.402;9.994;2023-04-05T00:35:30;-1.60;97.80
13585;DHT22;6863;48.402;9.994;2023-04-05T00:37:56;-1.60;97.80
13585;DHT22;6863;48.402;9.994;2023-04-05T00:40:25;-1.60;97.70
13585;DHT22;6863;48.402;9.994;2023-04-05T00:42:51;-1.60;97.80
13585;DHT22;6863;48.402;9.994;2023-04-05T00:45:16;-1.70;97.60
13585;DHT22;6863;48.402;9.994;2023-04-05T00:47:42;-1.70;97.80
13585;DHT22;6863;48.402;9.994;2023-04-05T00:50:09;-1.80;98.00
13585;DHT22;6863;48.402;9.994;2023-04-05T00:52:38;-1.90;98.30
13585;DHT22;6863;48.402;9.994;2023-04-05T00:55:06;-1.90;98.60
13585;DHT22;6863;48.402;9.994;2023-04-05T00:57:34;-1.90;98.70
13585;DHT22;6863;48.402;9.994;2023-04-05T01:00:03;-2.00;98.80
13585;DHT22;6863;48.402;9.994;2023-04-05T01:02:36;-2.00;98.90
13585;DHT22;6863;48.402;9.994;2023-04-05T01:05:29;-2.00;99.00
13585;DHT22;6863;48.402;9.994;2023-04-05T01:08:03;-2.00;99.10
13585;DHT22;6863;48.402;9.994;2023-04-05T01:10:35;-2.00;99.10
13585;DHT22;6863;48.402;9.994;2023-04-05T01:13:02;-2.00;99.00
13585;DHT22;6863;48.402;9.994;2023-04-05T01:15:28;-2.00;99.00
13585;DHT22;6863;48.402;9.994;2023-04-05T01:17:53;-2.10;99.00
13585;DHT22;6863;48.402;9.994;2023-04-05T01:20:22;-2.10;98.90
13585;DHT22;6863;48.402;9.994;2023-04-05T01:25:53;-2.10;99.00
13585;DHT22;6863;48.402;9.994;2023-04-05T01:34:44;-2.20;99.10
13585;DHT22;6863;48.402;9.994;2023-04-05T01:37:14;-2.20;99.20
13585;DHT22;6863;48.402;9.994;2023-04-05T01:39:40;-2.20;99.40
13585;DHT22;6863;48.402;9.994;2023-04-05T01:42:06;-2.30;99.40
13585;DHT22;6863;48.402;9.994;2023-04-05T01:44:32;-2.30;99.60
13585;DHT22;6863;48.402;9.994;2023-04-05T01:46:57;-2.40;99.60
13585;DHT22;6863;48.402;9.994;2023-04-05T01:49:23;-2.40;99.70
13585;DHT22;6863;48.402;9.994;2023-04-05T01:51:49;-2.50;99.80
13585;DHT22;6863;48.402;9.994;2023-04-05T01:54:15;-2.50;99.90
13585;DHT22;6863;48.402;9.994;2023-04-05T01:56:40;-2.60;99.90
13585;DHT22;6863;48.402;9.994;2023-04-05T01:59:06;-2.60;99.90
13585;DHT22;6863;48.402;9.994;2023-04-05T02:01:32;-2.70;99.90
13585;DHT22;6863;48.402;9.994;2023-04-05T02:03:57;-2.70;99.90
13585;DHT22;6863;48.402;9.994;2023-04-05T02:06:23;-2.80;99.90
13585;DHT22;6863;48.402;9.994;2023-04-05T02:08:48;-2.80;99.90
13585;DHT22;6863;48.402;9.994;2023-04-05T02:11:14;-2.90;99.90
13585;DHT22;6863;48.402;9.994;2023-04-05T02:13:40;-2.90;99.90
13585;DHT22;6863;48.402;9.994;2023-04-05T02:16:05;-2.90;99.90
13585;DHT22;6863;48.402;9.994;2023-04-05T02:18:31;-2.90;99.90
13585;DHT22;6863;48.402;9.994;2023-04-05T02:21:01;-2.90;99.90
13585;DHT22;6863;48.402;9.994;2023-04-05T02:23:27;-2.90;99.90
13585;DHT22;6863;48.402;9.994;2023-04-05T02:25:55;-2.90;99.90
13585;DHT22;6863;48.402;9.994;2023-04-05T02:28:20;-3.00;99.90
13585;DHT22;6863;48.402;9.994;2023-04-05T02:30:46;-3.00;99.90
13585;DHT22;6863;48.402;9.994;2023-04-05T02:33:11;-2.90;99.90
13585;DHT22;6863;48.402;9.994;2023-04-05T02:35:37;-2.90;99.90
13585;DHT22;6863;48.402;9.994;2023-04-05T02:38:03;-2.90;99.90
13585;DHT22;6863;48.402;9.994;2023-04-05T02:40:29;-2.90;99.90
13585;DHT22;6863;48.402;9.994;2023-04-05T02:42:55;-2.90;99.90
13585;DHT22;6863;48.402;9.994;2023-04-05T02:45:20;-2.90;99.90
13585;DHT22;6863;48.402;9.994;2023-04-05T02:47:46;-2.90;99.90
13585;DHT22;6863;48.402;9.994;2023-04-05T02:50:12;-3.00;99.90
13585;DHT22;6863;48.402;9.994;2023-04-05T02:52:37;-3.00;99.90
13585;DHT22;6863;48.402;9.994;2023-04-05T02:55:06;-3.00;99.90
13585;DHT22;6863;48.402;9.994;2023-04-05T02:57:32;-3.00;99.90
13585;DHT22;6863;48.402;9.994;2023-04-05T02:59:57;-3.00;99.90
13585;DHT22;6863;48.402;9.994;2023-04-05T03:02:23;-3.00;99.90
13585;DHT22;6863;48.402;9.994;2023-04-05T03:04:50;-3.00;99.90
13585;DHT22;6863;48.402;9.994;2023-04-05T03:07:17;-3.10;99.90
13585;DHT22;6863;48.402;9.994;2023-04-05T03:09:44;-3.10;99.90
13585;DHT22;6863;48.402;9.994;2023-04-05T03:12:10;-3.10;99.90
13585;DHT22;6863;48.402;9.994;2023-04-05T03:14:37;-3.20;99.90
13585;DHT22;6863;48.402;9.994;2023-04-05T03:17:03;-3.20;99.90
13585;DHT22;6863;48.402;9.994;2023-04-05T03:19:29;-3.20;99.90
13585;DHT22;6863;48.402;9.994;2023-04-05T03:21:55;-3.20;99.90
13585;DHT22;6863;48.402;9.994;2023-04-05T03:24:22;-3.10;99.90
13585;DHT22;6863;48.402;9.994;2023-04-05T03:26:48;-3.10;99.90
13585;DHT22;6863;48.402;9.994;2023-04-05T03:29:15;-3.20;99.90
13585;DHT22;6863;48.402;9.994;2023-04-05T03:31:41;-3.20;99.90
13585;DHT22;6863;48.402;9.994;2023-04-05T03:34:06;-3.30;99.90
13585;DHT22;6863;48.402;9.994;2023-04-05T03:36:32;-3.30;99.90
13585;DHT22;6863;48.402;9.994;2023-04-05T03:39:07;-3.40;99.90
13585;DHT22;6863;48.402;9.994;2023-04-05T03:41:33;-3.30;99.90
13585;DHT22;6863;48.402;9.994;2023-04-05T03:43:59;-3.30;99.90
13585;DHT22;6863;48.402;9.994;2023-04-05T03:46:25;-3.20;99.90
13585;DHT22;6863;48.402;9.994;2023-04-05T03:48:51;-3.20;99.90
13585;DHT22;6863;48.402;9.994;2023-04-05T03:51:17;-3.30;99.90
13585;DHT22;6863;48.402;9.994;2023-04-05T03:53:43;-3.30;99.90
13585;DHT22;6863;48.402;9.994;2023-04-05T03:56:09;-3.30;99.90
13585;DHT22;6863;48.402;9.994;2023-04-05T03:58:35;-3.30;99.90
13585;DHT22;6863;48.402;9.994;2023-04-05T04:01:01;-3.40;99.90
13585;DHT22;6863;48.402;9.994;2023-04-05T04:03:26;-3.40;99.90
13585;DHT22;6863;48.402;9.994;2023-04-05T04:05:53;-3.50;99.90
13585;DHT22;6863;48.402;9.994;2023-04-05T04:08:19;-3.50;99.90
13585;DHT22;6863;48.402;9.994;2023-04-05T04:10:45;-3.50;99.90
13585;DHT22;6863;48.402;9.994;2023-04-05T04:13:11;-3.50;99.90
13585;DHT22;6863;48.402;9.994;2023-04-05T04:15:36;-3.50;99.90
13585;DHT22;6863;48.402;9.994;2023-04-05T04:18:02;-3.60;99.90
13585;DHT22;6863;48.402;9.994;2023-04-05T04:20:28;-3.60;99.90
13585;DHT22;6863;48.402;9.994;2023-04-05T04:22:55;-3.50;99.90
13585;DHT22;6863;48.402;9.994;2023-04-05T04:25:20;-3.60;99.90
13585;DHT22;6863;48.402;9.994;2023-04-05T04:27:46;-3.50;99.90
13585;DHT22;6863;48.402;9.994;2023-04-05T04:30:13;-3.60;99.90
13585;DHT22;6863;48.402;9.994;2023-04-05T04:32:40;-3.60;99.90
13585;DHT22;6863;48.402;9.994;2023-04-05T04:35:16;-3.50;99.90
13585;DHT22;6863;48.402;9.994;2023-04-05T04:37:59;-3.50;99.90
13585;DHT22;6863;48.402;9.994;2023-04-05T04:40:30;-3.50;99.90
13585;DHT22;6863;48.402;9.994;2023-04-05T04:43:08;-3.50;99.90
13585;DHT22;6863;48.402;9.994;2023-04-05T04:45:41;-3.50;99.90
13585;DHT22;6863;48.402;9.994;2023-04-05T04:48:07;-3.50;99.90
13585;DHT22;6863;48.402;9.994;2023-04-05T04:50:33;-3.40;99.90
13585;DHT22;6863;48.402;9.994;2023-04-05T04:52:59;-3.30;99.90
13585;DHT22;6863;48.402;9.994;2023-04-05T04:55:26;-3.30;99.90
13585;DHT22;6863;48.402;9.994;2023-04-05T04:57:53;-3.30;99.90
13585;DHT22;6863;48.402;9.994;2023-04-05T05:00:19;-3.20;99.90
13585;DHT22;6863;48.402;9.994;2023-04-05T05:02:45;-3.30;99.90
13585;DHT22;6863;48.402;9.994;2023-04-05T05:05:12;-3.20;99.90
13585;DHT22;6863;48.402;9.994;2023-04-05T05:07:39;-3.20;99.90
13585;DHT22;6863;48.402;9.994;2023-04-05T05:10:09;-3.20;99.90
13585;DHT22;6863;48.402;9.994;2023-04-05T05:12:35;-3.20;99.90
13585;DHT22;6863;48.402;9.994;2023-04-05T05:15:01;-3.10;99.90
13585;DHT22;6863;48.402;9.994;2023-04-05T05:17:27;-3.10;99.90
13585;DHT22;6863;48.402;9.994;2023-04-05T05:19:52;-3.10;99.90
13585;DHT22;6863;48.402;9.994;2023-04-05T05:22:18;-3.00;99.90
13585;DHT22;6863;48.402;9.994;2023-04-05T05:24:44;-2.90;99.90
13585;DHT22;6863;48.402;9.994;2023-04-05T05:27:11;-2.80;99.90
13585;DHT22;6863;48.402;9.994;2023-04-05T05:29:36;-2.70;99.90
13585;DHT22;6863;48.402;9.994;2023-04-05T05:32:02;-2.70;99.90
13585;DHT22;6863;48.402;9.994;2023-04-05T05:34:27;-2.60;99.90
13585;DHT22;6863;48.402;9.994;2023-04-05T05:36:56;-2.60;99.90
13585;DHT22;6863;48.402;9.994;2023-04-05T05:39:22;-2.50;99.90
13585;DHT22;6863;48.402;9.994;2023-04-05T05:41:48;-2.50;99.90
13585;DHT22;6863;48.402;9.994;2023-04-05T05:44:13;-2.40;99.90
13585;DHT22;6863;48.402;9.994;2023-04-05T05:46:39;-2.30;99.90
13585;DHT22;6863;48.402;9.994;2023-04-05T05:49:05;-2.30;99.90
13585;DHT22;6863;48.402;9.994;2023-04-05T05:51:31;-2.00;99.70
13585;DHT22;6863;48.402;9.994;2023-04-05T05:54:00;-1.80;99.40
13585;DHT22;6863;48.402;9.994;2023-04-05T05:56:26;-1.60;98.40
13585;DHT22;6863;48.402;9.994;2023-04-05T05:58:51;-1.40;97.90
13585;DHT22;6863;48.402;9.994;2023-04-05T06:01:17;-1.20;97.70
13585;DHT22;6863;48.402;9.994;2023-04-05T06:03:47;-1.00;97.40
13585;DHT22;6863;48.402;9.994;2023-04-05T06:06:12;-0.70;96.90
13585;DHT22;6863;48.402;9.994;2023-04-05T06:08:38;-0.60;96.20
13585;DHT22;6863;48.402;9.994;2023-04-05T06:11:04;-0.30;96.00
13585;DHT22;6863;48.402;9.994;2023-04-05T06:13:29;-0.20;95.40
13585;DHT22;6863;48.402;9.994;2023-04-05T06:15:55;0.10;95.00
13585;DHT22;6863;48.402;9.994;2023-04-05T06:18:21;0.30;94.50
13585;DHT22;6863;48.402;9.994;2023-04-05T06:20:46;0.50;93.80
13585;DHT22;6863;48.402;9.994;2023-04-05T06:23:12;0.60;93.10
13585;DHT22;6863;48.402;9.994;2023-04-05T06:25:38;0.80;92.10
13585;DHT22;6863;48.402;9.994;2023-04-05T06:28:05;1.00;91.70
13585;DHT22;6863;48.402;9.994;2023-04-05T06:30:32;1.20;91.20
13585;DHT22;6863;48.402;9.994;2023-04-05T06:32:58;1.40;90.70
13585;DHT22;6863;48.402;9.994;2023-04-05T06:35:25;1.50;90.00
13585;DHT22;6863;48.402;9.994;2023-04-05T06:37:51;1.70;88.80
13585;DHT22;6863;48.402;9.994;2023-04-05T06:40:18;1.80;87.40
13585;DHT22;6863;48.402;9.994;2023-04-05T06:42:44;2.00;86.80
13585;DHT22;6863;48.402;9.994;2023-04-05T06:45:10;2.20;86.30
13585;DHT22;6863;48.402;9.994;2023-04-05T06:47:38;2.40;83.80
13585;DHT22;6863;48.402;9.994;2023-04-05T06:50:06;2.50;82.40
13585;DHT22;6863;48.402;9.994;2023-04-05T06:52:33;2.70;80.90
13585;DHT22;6863;48.402;9.994;2023-04-05T06:54:58;2.80;80.50
13585;DHT22;6863;48.402;9.994;2023-04-05T06:57:24;3.00;80.60
13585;DHT22;6863;48.402;9.994;2023-04-05T06:59:53;3.30;79.20
13585;DHT22;6863;48.402;9.994;2023-04-05T07:02:20;3.50;77.60
13585;DHT22;6863;48.402;9.994;2023-04-05T07:04:46;3.60;76.00
13585;DHT22;6863;48.402;9.994;2023-04-05T07:07:13;3.80;75.50
13585;DHT22;6863;48.402;9.994;2023-04-05T07:09:38;4.00;74.90
13585;DHT22;6863;48.402;9.994;2023-04-05T07:12:05;4.10;73.30
13585;DHT22;6863;48.402;9.994;2023-04-05T07:14:33;4.30;72.60
13585;DHT22;6863;48.402;9.994;2023-04-05T07:16:58;4.50;72.40
13585;DHT22;6863;48.402;9.994;2023-04-05T07:19:24;4.50;70.90
13585;DHT22;6863;48.402;9.994;2023-04-05T07:21:51;4.70;70.60
13585;DHT22;6863;48.402;9.994;2023-04-05T07:24:16;4.90;68.90
13585;DHT22;6863;48.402;9.994;2023-04-05T07:26:42;5.10;68.70
13585;DHT22;6863;48.402;9.994;2023-04-05T07:29:08;5.20;68.00
13585;DHT22;6863;48.402;9.994;2023-04-05T07:31:34;5.40;68.60
13585;DHT22;6863;48.402;9.994;2023-04-05T07:34:00;5.40;66.80
13585;DHT22;6863;48.402;9.994;2023-04-05T07:36:26;5.60;66.90
13585;DHT22;6863;48.402;9.994;2023-04-05T07:38:53;5.80;67.10
13585;DHT22;6863;48.402;9.994;2023-04-05T07:41:19;6.10;67.00
13585;DHT22;6863;48.402;9.994;2023-04-05T07:43:45;6.30;64.30
13585;DHT22;6863;48.402;9.994;2023-04-05T07:46:11;6.60;63.00
13585;DHT22;6863;48.402;9.994;2023-04-05T07:48:37;6.80;61.70
13585;DHT22;6863;48.402;9.994;2023-04-05T07:51:06;7.00;61.40
13585;DHT22;6863;48.402;9.994;2023-04-05T07:53:33;6.80;60.70
13585;DHT22;6863;48.402;9.994;2023-04-05T07:56:05;7.20;59.90
13585;DHT22;6863;48.402;9.994;2023-04-05T07:58:32;7.30;58.90
13585;DHT22;6863;48.402;9.994;2023-04-05T08:01:02;7.50;58.40
13585;DHT22;6863;48.402;9.994;2023-04-05T08:03:29;7.80;58.00
13585;DHT22;6863;48.402;9.994;2023-04-05T08:05:55;8.20;57.60
13585;DHT22;6863;48.402;9.994;2023-04-05T08:08:21;8.30;56.00
13585;DHT22;6863;48.402;9.994;2023-04-05T08:10:47;8.50;56.00
13585;DHT22;6863;48.402;9.994;2023-04-05T08:13:13;8.70;54.50
13585;DHT22;6863;48.402;9.994;2023-04-05T08:15:39;9.10;54.20
13585;DHT22;6863;48.402;9.994;2023-04-05T08:18:05;9.40;52.60
13585;DHT22;6863;48.402;9.994;2023-04-05T08:20:30;9.40;51.90
13585;DHT22;6863;48.402;9.994;2023-04-05T08:22:56;9.60;51.70
13585;DHT22;6863;48.402;9.994;2023-04-05T08:25:22;9.70;51.50
13585;DHT22;6863;48.402;9.994;2023-04-05T08:27:47;10.00;49.80
13585;DHT22;6863;48.402;9.994;2023-04-05T08:30:13;10.40;48.70
13585;DHT22;6863;48.402;9.994;2023-04-05T08:32:38;10.70;48.20
13585;DHT22;6863;48.402;9.994;2023-04-05T08:35:04;10.90;47.90
13585;DHT22;6863;48.402;9.994;2023-04-05T08:37:34;11.20;46.10
13585;DHT22;6863;48.402;9.994;2023-04-05T08:40:00;12.00;45.50
13585;DHT22;6863;48.402;9.994;2023-04-05T08:42:29;12.60;43.50
13585;DHT22;6863;48.402;9.994;2023-04-05T08:44:57;13.30;42.20
13585;DHT22;6863;48.402;9.994;2023-04-05T08:47:24;13.30;40.50
13585;DHT22;6863;48.402;9.994;2023-04-05T08:49:50;13.80;40.20
13585;DHT22;6863;48.402;9.994;2023-04-05T08:52:16;14.60;39.40
13585;DHT22;6863;48.402;9.994;2023-04-05T08:54:42;15.50;38.40
13585;DHT22;6863;48.402;9.994;2023-04-05T08:57:08;15.60;35.80
13585;DHT22;6863;48.402;9.994;2023-04-05T08:59:38;15.50;34.80
13585;DHT22;6863;48.402;9.994;2023-04-05T09:02:13;15.50;35.20
13585;DHT22;6863;48.402;9.994;2023-04-05T09:04:42;17.10;34.80
13585;DHT22;6863;48.402;9.994;2023-04-05T09:07:13;17.80;33.00
13585;DHT22;6863;48.402;9.994;2023-04-05T09:09:41;18.20;31.70
13585;DHT22;6863;48.402;9.994;2023-04-05T09:12:08;18.60;30.70
13585;DHT22;6863;48.402;9.994;2023-04-05T09:14:35;19.00;31.10
13585;DHT22;6863;48.402;9.994;2023-04-05T09:17:02;19.30;29.10
13585;DHT22;6863;48.402;9.994;2023-04-05T09:19:28;20.00;29.20
13585;DHT22;6863;48.402;9.994;2023-04-05T09:24:39;19.70;27.90
13585;DHT22;6863;48.402;9.994;2023-04-05T09:27:10;20.30;28.70
13585;DHT22;6863;48.402;9.994;2023-04-05T09:29:38;21.60;27.00
13585;DHT22;6863;48.402;9.994;2023-04-05T09:32:06;21.80;25.80
13585;DHT22;6863;48.402;9.994;2023-04-05T09:34:36;21.70;25.30
13585;DHT22;6863;48.402;9.994;2023-04-05T09:37:13;22.30;24.90
13585;DHT22;6863;48.402;9.994;2023-04-05T09:39:39;22.20;24.10
13585;DHT22;6863;48.402;9.994;2023-04-05T09:47:16;19.90;26.00
13585;DHT22;6863;48.402;9.994;2023-04-05T09:49:42;18.20;25.90
13585;DHT22;6863;48.402;9.994;2023-04-05T09:52:22;17.10;26.00
13585;DHT22;6863;48.402;9.994;2023-04-05T09:54:51;15.90;27.70
13585;DHT22;6863;48.402;9.994;2023-04-05T09:57:17;18.00;27.80
13585;DHT22;6863;48.402;9.994;2023-04-05T09:59:44;19.30;26.50
13585;DHT22;6863;48.402;9.994;2023-04-05T10:02:10;20.50;25.20
13585;DHT22;6863;48.402;9.994;2023-04-05T10:04:46;22.00;24.50
13585;DHT22;6863;48.402;9.994;2023-04-05T10:07:14;23.60;23.60
13585;DHT22;6863;48.402;9.994;2023-04-05T10:09:41;25.00;22.80
13585;DHT22;6863;48.402;9.994;2023-04-05T10:12:08;25.70;22.10
13585;DHT22;6863;48.402;9.994;2023-04-05T10:14:35;26.70;20.80
13585;DHT22;6863;48.402;9.994;2023-04-05T10:17:11;26.20;20.90
13585;DHT22;6863;48.402;9.994;2023-04-05T10:22:16;28.40;19.40
13585;DHT22;6863;48.402;9.994;2023-04-05T10:24:53;28.20;19.00
13585;DHT22;6863;48.402;9.994;2023-04-05T10:27:44;26.80;20.00
13585;DHT22;6863;48.402;9.994;2023-04-05T10:30:12;27.40;19.10
13585;DHT22;6863;48.402;9.994;2023-04-05T10:33:05;26.60;19.50
13585;DHT22;6863;48.402;9.994;2023-04-05T10:40:37;26.10;19.20
13585;DHT22;6863;48.402;9.994;2023-04-05T10:43:18;23.00;20.70
13585;DHT22;6863;48.402;9.994;2023-04-05T10:45:49;23.70;21.50
13585;DHT22;6863;48.402;9.994;2023-04-05T10:51:12;23.90;20.70
13585;DHT22;6863;48.402;9.994;2023-04-05T10:53:40;21.60;21.80
13585;DHT22;6863;48.402;9.994;2023-04-05T10:56:11;21.60;22.30
13585;DHT22;6863;48.402;9.994;2023-04-05T10:58:38;23.90;22.10
13585;DHT22;6863;48.402;9.994;2023-04-05T11:01:05;25.30;21.00
13585;DHT22;6863;48.402;9.994;2023-04-05T11:06:33;26.90;19.10
13585;DHT22;6863;48.402;9.994;2023-04-05T11:09:19;25.90;19.30
13585;DHT22;6863;48.402;9.994;2023-04-05T11:11:51;26.60;19.40
13585;DHT22;6863;48.402;9.994;2023-04-05T11:14:24;28.10;18.60
13585;DHT22;6863;48.402;9.994;2023-04-05T11:16:53;28.60;18.70
13585;DHT22;6863;48.402;9.994;2023-04-05T11:22:27;30.40;17.40
13585;DHT22;6863;48.402;9.994;2023-04-05T11:24:55;31.00;16.60
13585;DHT22;6863;48.402;9.994;2023-04-05T11:27:26;28.40;17.40
13585;DHT22;6863;48.402;9.994;2023-04-05T11:29:52;27.20;18.00
13585;DHT22;6863;48.402;9.994;2023-04-05T11:32:19;29.00;17.60
13585;DHT22;6863;48.402;9.994;2023-04-05T11:35:00;29.90;17.00
13585;DHT22;6863;48.402;9.994;2023-04-05T11:37:52;27.60;17.80
13585;DHT22;6863;48.402;9.994;2023-04-05T11:40:25;27.50;18.60
13585;DHT22;6863;48.402;9.994;2023-04-05T11:45:47;31.40;16.80
13585;DHT22;6863;48.402;9.994;2023-04-05T11:48:13;32.40;16.10
13585;DHT22;6863;48.402;9.994;2023-04-05T11:50:40;31.60;15.70
13585;DHT22;6863;48.402;9.994;2023-04-05T11:53:24;29.90;16.60
13585;DHT22;6863;48.402;9.994;2023-04-05T11:55:50;30.70;16.50
13585;DHT22;6863;48.402;9.994;2023-04-05T11:58:21;32.60;15.80
13585;DHT22;6863;48.402;9.994;2023-04-05T12:00:57;33.60;15.00
13585;DHT22;6863;48.402;9.994;2023-04-05T12:03:23;32.70;15.20
13585;DHT22;6863;48.402;9.994;2023-04-05T12:05:50;32.70;15.20
13585;DHT22;6863;48.402;9.994;2023-04-05T12:08:19;33.80;15.10
13585;DHT22;6863;48.402;9.994;2023-04-05T12:10:58;32.70;14.80
13585;DHT22;6863;48.402;9.994;2023-04-05T12:13:32;31.60;15.10
13585;DHT22;6863;48.402;9.994;2023-04-05T12:16:03;29.60;15.90
13585;DHT22;6863;48.402;9.994;2023-04-05T12:18:32;29.40;16.30
13585;DHT22;6863;48.402;9.994;2023-04-05T12:20:59;29.90;16.00
13585;DHT22;6863;48.402;9.994;2023-04-05T12:23:25;31.60;16.20
13585;DHT22;6863;48.402;9.994;2023-04-05T12:25:53;32.30;15.30
13585;DHT22;6863;48.402;9.994;2023-04-05T12:28:19;33.30;14.90
13585;DHT22;6863;48.402;9.994;2023-04-05T12:30:52;32.70;14.90
13585;DHT22;6863;48.402;9.994;2023-04-05T12:33:31;32.30;14.90
13585;DHT22;6863;48.402;9.994;2023-04-05T12:35:59;32.00;14.90
13585;DHT22;6863;48.402;9.994;2023-04-05T12:38:28;31.70;14.80
13585;DHT22;6863;48.402;9.994;2023-04-05T12:40:59;29.30;15.90
13585;DHT22;6863;48.402;9.994;2023-04-05T12:46:15;32.30;15.40
13585;DHT22;6863;48.402;9.994;2023-04-05T12:48:41;32.10;15.10
13585;DHT22;6863;48.402;9.994;2023-04-05T12:51:16;32.60;14.80
13585;DHT22;6863;48.402;9.994;2023-04-05T12:53:46;31.80;15.00
13585;DHT22;6863;48.402;9.994;2023-04-05T12:56:12;30.00;15.60
13585;DHT22;6863;48.402;9.994;2023-04-05T12:58:40;29.60;15.70
13585;DHT22;6863;48.402;9.994;2023-04-05T13:01:06;30.30;15.30
13585;DHT22;6863;48.402;9.994;2023-04-05T13:03:32;30.70;15.20
13585;DHT22;6863;48.402;9.994;2023-04-05T13:05:57;31.70;14.90
13585;DHT22;6863;48.402;9.994;2023-04-05T13:08:23;28.70;16.40
13585;DHT22;6863;48.402;9.994;2023-04-05T13:10:51;28.30;17.30
13585;DHT22;6863;48.402;9.994;2023-04-05T13:13:17;27.20;17.70
13585;DHT22;6863;48.402;9.994;2023-04-05T13:15:45;26.30;18.00
13585;DHT22;6863;48.402;9.994;2023-04-05T13:18:11;26.20;18.60
13585;DHT22;6863;48.402;9.994;2023-04-05T13:20:42;27.10;18.30
13585;DHT22;6863;48.402;9.994;2023-04-05T13:23:08;27.10;18.00
13585;DHT22;6863;48.402;9.994;2023-04-05T13:25:40;28.90;17.30
13585;DHT22;6863;48.402;9.994;2023-04-05T13:28:06;28.30;16.80
13585;DHT22;6863;48.402;9.994;2023-04-05T13:30:32;28.30;17.30
13585;DHT22;6863;48.402;9.994;2023-04-05T13:32:58;29.00;16.80
13585;DHT22;6863;48.402;9.994;2023-04-05T13:35:23;28.50;17.00
13585;DHT22;6863;48.402;9.994;2023-04-05T13:37:49;28.90;16.90
13585;DHT22;6863;48.402;9.994;2023-04-05T13:40:15;29.20;16.70
13585;DHT22;6863;48.402;9.994;2023-04-05T13:42:43;29.70;16.20
13585;DHT22;6863;48.402;9.994;2023-04-05T13:45:09;27.90;17.00
13585;DHT22;6863;48.402;9.994;2023-04-05T13:47:36;29.30;16.30
13585;DHT22;6863;48.402;9.994;2023-04-05T13:50:02;30.30;16.30
13585;DHT22;6863;48.402;9.994;2023-04-05T13:52:28;30.70;15.50
13585;DHT22;6863;48.402;9.994;2023-04-05T13:54:54;32.20;15.20
13585;DHT22;6863;48.402;9.994;2023-04-05T13:57:20;30.60;14.90
13585;DHT22;6863;48.402;9.994;2023-04-05T13:59:45;29.40;15.70
13585;DHT22;6863;48.402;9.994;2023-04-05T14:02:11;30.30;15.30
13585;DHT22;6863;48.402;9.994;2023-04-05T14:04:40;31.30;15.20
13585;DHT22;6863;48.402;9.994;2023-04-05T14:07:06;30.60;15.20
13585;DHT22;6863;48.402;9.994;2023-04-05T14:09:33;31.90;15.10
13585;DHT22;6863;48.402;9.994;2023-04-05T14:11:59;33.20;14.70
13585;DHT22;6863;48.402;9.994;2023-04-05T14:14:28;32.30;14.60
13585;DHT22;6863;48.402;9.994;2023-04-05T14:16:54;32.60;15.00
13585;DHT22;6863;48.402;9.994;2023-04-05T14:19:20;33.40;14.60
13585;DHT22;6863;48.402;9.994;2023-04-05T14:21:46;32.70;14.70
13585;DHT22;6863;48.402;9.994;2023-04-05T14:24:12;32.80;14.70
13585;DHT22;6863;48.402;9.994;2023-04-05T14:26:39;30.80;15.30
13585;DHT22;6863;48.402;9.994;2023-04-05T14:29:10;31.10;15.30
13585;DHT22;6863;48.402;9.994;2023-04-05T14:31:36;29.50;15.40
13585;DHT22;6863;48.402;9.994;2023-04-05T14:34:02;27.00;16.50
13585;DHT22;6863;48.402;9.994;2023-04-05T14:36:27;25.70;17.00
13585;DHT22;6863;48.402;9.994;2023-04-05T14:38:53;22.50;18.60
13585;DHT22;6863;48.402;9.994;2023-04-05T14:41:19;20.60;20.10
13585;DHT22;6863;48.402;9.994;2023-04-05T14:46:10;19.70;21.50
13585;DHT22;6863;48.402;9.994;2023-04-05T14:48:35;21.30;21.10
13585;DHT22;6863;48.402;9.994;2023-04-05T14:51:02;23.30;20.00
13585;DHT22;6863;48.402;9.994;2023-04-05T14:53:27;25.10;18.80
13585;DHT22;6863;48.402;9.994;2023-04-05T14:55:53;25.40;18.40
13585;DHT22;6863;48.402;9.994;2023-04-05T14:58:19;25.70;18.20
13585;DHT22;6863;48.402;9.994;2023-04-05T15:00:46;25.60;18.30
13585;DHT22;6863;48.402;9.994;2023-04-05T15:03:12;25.40;18.90
13585;DHT22;6863;48.402;9.994;2023-04-05T15:05:38;26.90;17.60
13585;DHT22;6863;48.402;9.994;2023-04-05T15:08:04;25.90;17.90
13585;DHT22;6863;48.402;9.994;2023-04-05T15:10:30;24.10;18.80
13585;DHT22;6863;48.402;9.994;2023-04-05T15:12:55;22.20;19.20
13585;DHT22;6863;48.402;9.994;2023-04-05T15:15:21;21.90;19.80
13585;DHT22;6863;48.402;9.994;2023-04-05T15:17:47;20.70;20.60
13585;DHT22;6863;48.402;9.994;2023-04-05T15:20:12;19.70;21.40
13585;DHT22;6863;48.402;9.994;2023-04-05T15:22:38;18.50;22.00
13585;DHT22;6863;48.402;9.994;2023-04-05T15:25:08;17.40;22.70
13585;DHT22;6863;48.402;9.994;2023-04-05T15:27:33;17.30;23.10
13585;DHT22;6863;48.402;9.994;2023-04-05T15:29:59;18.40;22.60
13585;DHT22;6863;48.402;9.994;2023-04-05T15:32:25;19.50;22.10
13585;DHT22;6863;48.402;9.994;2023-04-05T15:34:50;19.80;20.80
13585;DHT22;6863;48.402;9.994;2023-04-05T15:37:20;20.10;20.40
13585;DHT22;6863;48.402;9.994;2023-04-05T15:39:51;19.70;20.20
13585;DHT22;6863;48.402;9.994;2023-04-05T15:42:17;18.40;20.70
13585;DHT22;6863;48.402;9.994;2023-04-05T15:44:48;18.00;21.30
13585;DHT22;6863;48.402;9.994;2023-04-05T15:47:15;17.50;22.30
13585;DHT22;6863;48.402;9.994;2023-04-05T15:49:40;17.30;22.30
13585;DHT22;6863;48.402;9.994;2023-04-05T15:52:08;17.30;22.30
13585;DHT22;6863;48.402;9.994;2023-04-05T15:54:34;16.80;22.70
13585;DHT22;6863;48.402;9.994;2023-04-05T15:57:00;16.00;23.70
13585;DHT22;6863;48.402;9.994;2023-04-05T15:59:26;15.30;25.10
13585;DHT22;6863;48.402;9.994;2023-04-05T16:01:52;15.20;24.90
13585;DHT22;6863;48.402;9.994;2023-04-05T16:04:18;14.50;26.10
13585;DHT22;6863;48.402;9.994;2023-04-05T16:06:44;14.10;26.40
13585;DHT22;6863;48.402;9.994;2023-04-05T16:09:09;13.30;26.60
13585;DHT22;6863;48.402;9.994;2023-04-05T16:11:35;12.50;27.10
13585;DHT22;6863;48.402;9.994;2023-04-05T16:14:01;11.80;27.70
13585;DHT22;6863;48.402;9.994;2023-04-05T16:16:27;11.40;28.60
13585;DHT22;6863;48.402;9.994;2023-04-05T16:18:53;11.10;28.90
13585;DHT22;6863;48.402;9.994;2023-04-05T16:21:19;10.80;29.10
13585;DHT22;6863;48.402;9.994;2023-04-05T16:23:45;10.50;29.30
13585;DHT22;6863;48.402;9.994;2023-04-05T16:26:11;10.40;29.40
13585;DHT22;6863;48.402;9.994;2023-04-05T16:28:38;10.20;29.90
13585;DHT22;6863;48.402;9.994;2023-04-05T16:31:04;10.00;30.40